sensor_id;sensor_type;location;lat;lon;timestamp;temperature;humidity
41904;DHT22;27586;51.124;4.182;2023-10-08T00:00:48;15.50;99.90
41904;DHT22;27586;51.124;4.182;2023-10-08T00:03:21;15.50;99.90
41904;DHT22;27586;51.124;4.182;2023-10-08T00:05:47;15.40;99.90
41904;DHT22;27586;51.124;4.182;2023-10-08T00:08:15;15.50;99.90
41904;DHT22;27586;51.124;4.182;2023-10-08T00:10:42;15.50;99.90
41904;DHT22;27586;51.124;4.182;2023-10-08T00:13:10;15.40;99.90
41904;DHT22;27586;51.124;4.182;2023-10-08T00:15:38;15.40;99.90
41904;DHT22;27586;51.124;4.182;2023-10-08T00:18:14;15.40;99.90
41904;DHT22;27586;51.124;4.182;2023-10-08T00:20:41;15.30;99.90
41904;DHT22;27586;51.124;4.182;2023-10-08T00:23:32;15.40;99.90
41904;DHT22;27586;51.124;4.182;2023-10-08T00:26:01;15.40;99.90
41904;DHT22;27586;51.124;4.182;2023-10-08T00:28:30;15.40;99.90
41904;DHT22;27586;51.124;4.182;2023-10-08T00:30:58;15.40;99.90
41904;DHT22;27586;51.124;4.182;2023-10-08T00:33:31;15.40;99.90
41904;DHT22;27586;51.124;4.182;2023-10-08T00:35:56;15.40;99.90
41904;DHT22;27586;51.124;4.182;2023-10-08T00:38:22;15.30;99.90
41904;DHT22;27586;51.124;4.182;2023-10-08T00:40:50;15.30;99.90
41904;DHT22;27586;51.124;4.182;2023-10-08T00:43:34;15.40;99.90
41904;DHT22;27586;51.124;4.182;2023-10-08T00:46:03;15.40;99.90
41904;DHT22;27586;51.124;4.182;2023-10-08T00:48:49;15.40;99.90
41904;DHT22;27586;51.124;4.182;2023-10-08T00:51:15;15.30;99.90
41904;DHT22;27586;51.124;4.182;2023-10-08T00:54:02;15.40;99.90
41904;DHT22;27586;51.124;4.182;2023-10-08T00:56:33;15.40;99.90
41904;DHT22;27586;51.124;4.182;2023-10-08T00:59:17;15.30;99.90
41904;DHT22;27586;51.124;4.182;2023-10-08T01:01:46;15.20;99.90
41904;DHT22;27586;51.124;4.182;2023-10-08T01:04:17;15.20;99.90
41904;DHT22;27586;51.124;4.182;2023-10-08T01:06:47;15.10;99.90
41904;DHT22;27586;51.124;4.182;2023-10-08T01:09:16;15.10;99.90
41904;DHT22;27586;51.124;4.182;2023-10-08T01:12:07;15.10;99.90
41904;DHT22;27586;51.124;4.182;2023-10-08T01:14:34;15.10;99.90
41904;DHT22;27586;51.124;4.182;2023-10-08T01:17:01;15.10;99.90
41904;DHT22;27586;51.124;4.182;2023-10-08T01:19:26;15.10;99.90
41904;DHT22;27586;51.124;4.182;2023-10-08T01:21:53;14.90;99.90
41904;DHT22;27586;51.124;4.182;2023-10-08T01:24:19;15.00;99.90
41904;DHT22;27586;51.124;4.182;2023-10-08T01:26:49;14.90;99.90
41904;DHT22;27586;51.124;4.182;2023-10-08T01:29:15;14.90;99.90
41904;DHT22;27586;51.124;4.182;2023-10-08T01:31:47;14.90;99.90
41904;DHT22;27586;51.124;4.182;2023-10-08T01:34:18;14.90;99.90
41904;DHT22;27586;51.124;4.182;2023-10-08T01:36:44;14.80;99.90
41904;DHT22;27586;51.124;4.182;2023-10-08T01:39:11;14.70;99.90
41904;DHT22;27586;51.124;4.182;2023-10-08T01:41:43;14.80;99.90
41904;DHT22;27586;51.124;4.182;2023-10-08T01:44:09;14.70;99.90
41904;DHT22;27586;51.124;4.182;2023-10-08T01:46:34;14.60;99.90
41904;DHT22;27586;51.124;4.182;2023-10-08T01:49:00;14.70;99.90
41904;DHT22;27586;51.124;4.182;2023-10-08T01:51:32;14.70;99.90
41904;DHT22;27586;51.124;4.182;2023-10-08T01:54:05;14.70;99.90
41904;DHT22;27586;51.124;4.182;2023-10-08T01:56:40;14.70;99.90
41904;DHT22;27586;51.124;4.182;2023-10-08T01:59:10;14.70;99.90
41904;DHT22;27586;51.124;4.182;2023-10-08T02:01:37;14.70;99.90
41904;DHT22;27586;51.124;4.182;2023-10-08T02:04:05;14.70;99.90
41904;DHT22;27586;51.124;4.182;2023-10-08T02:06:35;14.60;99.90
41904;DHT22;27586;51.124;4.182;2023-10-08T02:09:01;14.70;99.90
41904;DHT22;27586;51.124;4.182;2023-10-08T02:11:44;14.60;99.90
41904;DHT22;27586;51.124;4.182;2023-10-08T02:14:11;14.60;99.90
41904;DHT22;27586;51.124;4.182;2023-10-08T02:16:38;14.60;99.90
41904;DHT22;27586;51.124;4.182;2023-10-08T02:19:04;14.60;99.90
41904;DHT22;27586;51.124;4.182;2023-10-08T02:21:30;14.60;99.90
41904;DHT22;27586;51.124;4.182;2023-10-08T02:23:56;14.60;99.90
41904;DHT22;27586;51.124;4.182;2023-10-08T02:26:22;14.70;99.90
41904;DHT22;27586;51.124;4.182;2023-10-08T02:28:49;14.70;99.90
41904;DHT22;27586;51.124;4.182;2023-10-08T02:31:16;14.80;99.90
41904;DHT22;27586;51.124;4.182;2023-10-08T02:33:43;14.80;99.90
41904;DHT22;27586;51.124;4.182;2023-10-08T02:36:09;14.90;99.90
41904;DHT22;27586;51.124;4.182;2023-10-08T02:38:35;14.80;99.90
41904;DHT22;27586;51.124;4.182;2023-10-08T02:41:04;14.90;99.90
41904;DHT22;27586;51.124;4.182;2023-10-08T02:43:32;14.90;99.90
41904;DHT22;27586;51.124;4.182;2023-10-08T02:46:00;14.90;99.90
41904;DHT22;27586;51.124;4.182;2023-10-08T02:48:25;14.90;99.90
41904;DHT22;27586;51.124;4.182;2023-10-08T02:50:52;15.00;99.90
41904;DHT22;27586;51.124;4.182;2023-10-08T02:53:20;14.90;99.90
41904;DHT22;27586;51.124;4.182;2023-10-08T02:55:49;14.80;99.90
41904;DHT22;27586;51.124;4.182;2023-10-08T02:58:15;14.80;99.90
41904;DHT22;27586;51.124;4.182;2023-10-08T03:00:45;14.90;99.90
41904;DHT22;27586;51.124;4.182;2023-10-08T03:03:17;14.90;99.90
41904;DHT22;27586;51.124;4.182;2023-10-08T03:05:48;15.10;99.90
41904;DHT22;27586;51.124;4.182;2023-10-08T03:08:14;15.00;99.90
41904;DHT22;27586;51.124;4.182;2023-10-08T03:10:45;14.80;99.90
41904;DHT22;27586;51.124;4.182;2023-10-08T03:13:11;14.90;99.90
41904;DHT22;27586;51.124;4.182;2023-10-08T03:15:40;14.90;99.90
41904;DHT22;27586;51.124;4.182;2023-10-08T03:18:07;15.00;99.90
41904;DHT22;27586;51.124;4.182;2023-10-08T03:20:36;15.00;99.90
41904;DHT22;27586;51.124;4.182;2023-10-08T03:23:09;15.00;99.90
41904;DHT22;27586;51.124;4.182;2023-10-08T03:26:04;15.00;99.90
41904;DHT22;27586;51.124;4.182;2023-10-08T03:28:59;15.00;99.90
41904;DHT22;27586;51.124;4.182;2023-10-08T03:31:25;14.90;99.90
41904;DHT22;27586;51.124;4.182;2023-10-08T03:34:17;14.90;99.90
41904;DHT22;27586;51.124;4.182;2023-10-08T03:36:44;14.80;99.90
41904;DHT22;27586;51.124;4.182;2023-10-08T03:39:11;14.90;99.90
41904;DHT22;27586;51.124;4.182;2023-10-08T03:41:42;14.90;99.90
41904;DHT22;27586;51.124;4.182;2023-10-08T03:44:17;14.90;99.90
41904;DHT22;27586;51.124;4.182;2023-10-08T03:46:43;14.80;99.90
41904;DHT22;27586;51.124;4.182;2023-10-08T03:49:10;14.90;99.90
41904;DHT22;27586;51.124;4.182;2023-10-08T03:51:47;14.80;99.90
41904;DHT22;27586;51.124;4.182;2023-10-08T03:54:17;14.90;99.90
41904;DHT22;27586;51.124;4.182;2023-10-08T03:56:45;14.80;99.90
41904;DHT22;27586;51.124;4.182;2023-10-08T03:59:12;14.80;99.90
41904;DHT22;27586;51.124;4.182;2023-10-08T04:01:42;14.80;99.90
41904;DHT22;27586;51.124;4.182;2023-10-08T04:04:08;14.90;99.90
41904;DHT22;27586;51.124;4.182;2023-10-08T04:06:40;14.70;99.90
41904;DHT22;27586;51.124;4.182;2023-10-08T04:09:13;14.70;99.90
41904;DHT22;27586;51.124;4.182;2023-10-08T04:11:45;14.60;99.90
41904;DHT22;27586;51.124;4.182;2023-10-08T04:14:14;14.60;99.90
41904;DHT22;27586;51.124;4.182;2023-10-08T04:16:42;14.50;99.90
41904;DHT22;27586;51.124;4.182;2023-10-08T04:19:08;14.50;99.90
41904;DHT22;27586;51.124;4.182;2023-10-08T04:21:34;14.50;99.90
41904;DHT22;27586;51.124;4.182;2023-10-08T04:24:00;14.50;99.90
41904;DHT22;27586;51.124;4.182;2023-10-08T04:26:30;14.50;99.90
41904;DHT22;27586;51.124;4.182;2023-10-08T04:28:58;14.40;99.90
41904;DHT22;27586;51.124;4.182;2023-10-08T04:31:24;14.40;99.90
41904;DHT22;27586;51.124;4.182;2023-10-08T04:33:53;14.40;99.90
41904;DHT22;27586;51.124;4.182;2023-10-08T04:36:20;14.40;99.90
41904;DHT22;27586;51.124;4.182;2023-10-08T04:38:46;14.40;99.90
41904;DHT22;27586;51.124;4.182;2023-10-08T04:41:19;14.30;99.90
41904;DHT22;27586;51.124;4.182;2023-10-08T04:43:45;14.30;99.90
41904;DHT22;27586;51.124;4.182;2023-10-08T04:46:10;14.30;99.90
41904;DHT22;27586;51.124;4.182;2023-10-08T04:48:50;14.30;99.90
41904;DHT22;27586;51.124;4.182;2023-10-08T04:51:17;14.30;99.90
41904;DHT22;27586;51.124;4.182;2023-10-08T04:53:43;14.20;99.90
41904;DHT22;27586;51.124;4.182;2023-10-08T04:56:11;14.20;99.90
41904;DHT22;27586;51.124;4.182;2023-10-08T04:58:44;14.20;99.90
41904;DHT22;27586;51.124;4.182;2023-10-08T05:01:17;14.20;99.90
41904;DHT22;27586;51.124;4.182;2023-10-08T05:03:47;14.10;99.90
41904;DHT22;27586;51.124;4.182;2023-10-08T05:06:26;14.20;99.90
41904;DHT22;27586;51.124;4.182;2023-10-08T05:09:10;14.20;99.90
41904;DHT22;27586;51.124;4.182;2023-10-08T05:11:39;14.20;99.90
41904;DHT22;27586;51.124;4.182;2023-10-08T05:14:23;14.20;99.90
41904;DHT22;27586;51.124;4.182;2023-10-08T05:17:03;14.20;99.90
41904;DHT22;27586;51.124;4.182;2023-10-08T05:19:38;14.20;99.90
41904;DHT22;27586;51.124;4.182;2023-10-08T05:22:17;14.20;99.90
41904;DHT22;27586;51.124;4.182;2023-10-08T05:25:03;14.10;99.90
41904;DHT22;27586;51.124;4.182;2023-10-08T05:27:39;14.20;99.90
41904;DHT22;27586;51.124;4.182;2023-10-08T05:30:15;14.20;99.90
41904;DHT22;27586;51.124;4.182;2023-10-08T05:32:57;14.20;99.90
41904;DHT22;27586;51.124;4.182;2023-10-08T05:35:47;14.20;99.90
41904;DHT22;27586;51.124;4.182;2023-10-08T05:38:17;14.10;99.90
41904;DHT22;27586;51.124;4.182;2023-10-08T05:40:55;14.20;99.90
41904;DHT22;27586;51.124;4.182;2023-10-08T05:43:28;14.10;99.90
41904;DHT22;27586;51.124;4.182;2023-10-08T05:46:07;14.20;99.90
41904;DHT22;27586;51.124;4.182;2023-10-08T05:48:58;14.20;99.90
41904;DHT22;27586;51.124;4.182;2023-10-08T05:51:34;14.20;99.90
41904;DHT22;27586;51.124;4.182;2023-10-08T05:54:19;14.20;99.90
41904;DHT22;27586;51.124;4.182;2023-10-08T05:56:59;14.20;99.90
41904;DHT22;27586;51.124;4.182;2023-10-08T06:02:22;14.10;99.90
41904;DHT22;27586;51.124;4.182;2023-10-08T06:05:13;14.20;99.90
41904;DHT22;27586;51.124;4.182;2023-10-08T06:07:44;14.20;99.90
41904;DHT22;27586;51.124;4.182;2023-10-08T06:10:39;14.10;99.90
41904;DHT22;27586;51.124;4.182;2023-10-08T06:13:10;14.20;99.90
41904;DHT22;27586;51.124;4.182;2023-10-08T06:15:43;14.30;99.90
41904;DHT22;27586;51.124;4.182;2023-10-08T06:18:22;14.20;99.90
41904;DHT22;27586;51.124;4.182;2023-10-08T06:21:11;14.20;99.90
41904;DHT22;27586;51.124;4.182;2023-10-08T06:23:39;14.20;99.90
41904;DHT22;27586;51.124;4.182;2023-10-08T06:26:07;14.30;99.90
41904;DHT22;27586;51.124;4.182;2023-10-08T06:28:37;14.40;99.90
41904;DHT22;27586;51.124;4.182;2023-10-08T06:31:04;14.50;99.90
41904;DHT22;27586;51.124;4.182;2023-10-08T06:33:50;14.50;99.90
41904;DHT22;27586;51.124;4.182;2023-10-08T06:36:16;14.50;99.90
41904;DHT22;27586;51.124;4.182;2023-10-08T06:38:46;14.60;99.90
41904;DHT22;27586;51.124;4.182;2023-10-08T06:41:16;14.60;99.90
41904;DHT22;27586;51.124;4.182;2023-10-08T06:43:46;14.60;99.90
41904;DHT22;27586;51.124;4.182;2023-10-08T06:46:18;14.70;99.90
41904;DHT22;27586;51.124;4.182;2023-10-08T06:48:46;14.70;99.90
41904;DHT22;27586;51.124;4.182;2023-10-08T06:51:14;14.80;99.90
41904;DHT22;27586;51.124;4.182;2023-10-08T06:53:48;14.80;99.90
41904;DHT22;27586;51.124;4.182;2023-10-08T06:56:17;14.80;99.90
41904;DHT22;27586;51.124;4.182;2023-10-08T06:58:45;14.80;99.90
41904;DHT22;27586;51.124;4.182;2023-10-08T07:01:18;14.90;99.90
41904;DHT22;27586;51.124;4.182;2023-10-08T07:03:49;15.00;99.90
41904;DHT22;27586;51.124;4.182;2023-10-08T07:06:16;15.00;99.90
41904;DHT22;27586;51.124;4.182;2023-10-08T07:08:43;15.00;99.90
41904;DHT22;27586;51.124;4.182;2023-10-08T07:11:12;15.00;99.90
41904;DHT22;27586;51.124;4.182;2023-10-08T07:13:39;15.10;99.90
41904;DHT22;27586;51.124;4.182;2023-10-08T07:16:07;15.20;99.90
41904;DHT22;27586;51.124;4.182;2023-10-08T07:18:39;15.30;99.90
41904;DHT22;27586;51.124;4.182;2023-10-08T07:21:07;15.30;99.90
41904;DHT22;27586;51.124;4.182;2023-10-08T07:23:39;15.40;99.90
41904;DHT22;27586;51.124;4.182;2023-10-08T07:26:29;15.50;99.90
41904;DHT22;27586;51.124;4.182;2023-10-08T07:29:06;15.50;99.90
41904;DHT22;27586;51.124;4.182;2023-10-08T07:31:38;15.60;99.90
41904;DHT22;27586;51.124;4.182;2023-10-08T07:34:07;15.60;99.90
41904;DHT22;27586;51.124;4.182;2023-10-08T07:36:52;15.70;99.90
41904;DHT22;27586;51.124;4.182;2023-10-08T07:39:22;15.70;99.90
41904;DHT22;27586;51.124;4.182;2023-10-08T07:41:53;15.80;99.90
41904;DHT22;27586;51.124;4.182;2023-10-08T07:44:20;15.70;99.90
41904;DHT22;27586;51.124;4.182;2023-10-08T07:47:01;15.70;99.90
41904;DHT22;27586;51.124;4.182;2023-10-08T07:49:31;15.70;99.90
41904;DHT22;27586;51.124;4.182;2023-10-08T07:51:57;15.80;99.90
41904;DHT22;27586;51.124;4.182;2023-10-08T07:54:25;15.80;99.90
41904;DHT22;27586;51.124;4.182;2023-10-08T07:56:55;15.90;99.90
41904;DHT22;27586;51.124;4.182;2023-10-08T07:59:39;16.00;99.90
41904;DHT22;27586;51.124;4.182;2023-10-08T08:02:10;15.90;99.90
41904;DHT22;27586;51.124;4.182;2023-10-08T08:04:41;16.00;99.90
41904;DHT22;27586;51.124;4.182;2023-10-08T08:07:09;16.20;99.90
41904;DHT22;27586;51.124;4.182;2023-10-08T08:09:42;16.10;99.90
41904;DHT22;27586;51.124;4.182;2023-10-08T08:12:13;16.20;99.90
41904;DHT22;27586;51.124;4.182;2023-10-08T08:14:39;16.30;99.90
41904;DHT22;27586;51.124;4.182;2023-10-08T08:17:07;16.30;99.90
41904;DHT22;27586;51.124;4.182;2023-10-08T08:19:50;16.30;99.90
41904;DHT22;27586;51.124;4.182;2023-10-08T08:22:18;16.40;99.90
41904;DHT22;27586;51.124;4.182;2023-10-08T08:24:53;16.50;99.90
41904;DHT22;27586;51.124;4.182;2023-10-08T08:27:21;16.60;99.90
41904;DHT22;27586;51.124;4.182;2023-10-08T08:29:53;16.70;99.90
41904;DHT22;27586;51.124;4.182;2023-10-08T08:32:24;16.80;99.90
41904;DHT22;27586;51.124;4.182;2023-10-08T08:34:50;16.90;99.90
41904;DHT22;27586;51.124;4.182;2023-10-08T08:37:19;16.90;99.90
41904;DHT22;27586;51.124;4.182;2023-10-08T08:39:48;17.10;99.90
41904;DHT22;27586;51.124;4.182;2023-10-08T08:42:14;17.10;99.90
41904;DHT22;27586;51.124;4.182;2023-10-08T08:44:44;17.20;99.90
41904;DHT22;27586;51.124;4.182;2023-10-08T08:47:14;17.30;99.90
41904;DHT22;27586;51.124;4.182;2023-10-08T08:49:44;17.30;99.90
41904;DHT22;27586;51.124;4.182;2023-10-08T08:52:13;17.30;99.90
41904;DHT22;27586;51.124;4.182;2023-10-08T08:54:40;17.30;99.90
41904;DHT22;27586;51.124;4.182;2023-10-08T08:57:07;17.40;99.90
41904;DHT22;27586;51.124;4.182;2023-10-08T08:59:53;17.30;99.90
41904;DHT22;27586;51.124;4.182;2023-10-08T09:02:19;17.40;99.90
41904;DHT22;27586;51.124;4.182;2023-10-08T09:04:47;17.50;99.90
41904;DHT22;27586;51.124;4.182;2023-10-08T09:07:14;17.60;99.90
41904;DHT22;27586;51.124;4.182;2023-10-08T09:09:40;17.60;99.90
41904;DHT22;27586;51.124;4.182;2023-10-08T09:12:06;17.70;99.90
41904;DHT22;27586;51.124;4.182;2023-10-08T09:14:35;17.60;99.90
41904;DHT22;27586;51.124;4.182;2023-10-08T09:17:01;17.70;99.90
41904;DHT22;27586;51.124;4.182;2023-10-08T09:19:36;17.70;99.90
41904;DHT22;27586;51.124;4.182;2023-10-08T09:22:09;18.00;99.90
41904;DHT22;27586;51.124;4.182;2023-10-08T09:24:41;18.10;99.90
41904;DHT22;27586;51.124;4.182;2023-10-08T09:27:09;18.10;99.90
41904;DHT22;27586;51.124;4.182;2023-10-08T09:29:40;18.20;99.90
41904;DHT22;27586;51.124;4.182;2023-10-08T09:32:08;18.30;99.90
41904;DHT22;27586;51.124;4.182;2023-10-08T09:34:34;18.40;99.90
41904;DHT22;27586;51.124;4.182;2023-10-08T09:37:01;18.60;99.90
41904;DHT22;27586;51.124;4.182;2023-10-08T09:39:30;18.70;99.90
41904;DHT22;27586;51.124;4.182;2023-10-08T09:42:03;18.80;99.90
41904;DHT22;27586;51.124;4.182;2023-10-08T09:44:31;18.80;99.90
41904;DHT22;27586;51.124;4.182;2023-10-08T09:47:05;18.90;99.90
41904;DHT22;27586;51.124;4.182;2023-10-08T09:49:36;19.10;99.90
41904;DHT22;27586;51.124;4.182;2023-10-08T09:52:04;19.10;99.90
41904;DHT22;27586;51.124;4.182;2023-10-08T09:54:48;19.30;99.90
41904;DHT22;27586;51.124;4.182;2023-10-08T09:57:15;19.40;99.90
41904;DHT22;27586;51.124;4.182;2023-10-08T09:59:45;19.30;99.90
41904;DHT22;27586;51.124;4.182;2023-10-08T10:02:12;19.30;99.90
41904;DHT22;27586;51.124;4.182;2023-10-08T10:04:44;19.30;99.90
41904;DHT22;27586;51.124;4.182;2023-10-08T10:07:12;19.40;99.90
41904;DHT22;27586;51.124;4.182;2023-10-08T10:09:45;19.40;99.90
41904;DHT22;27586;51.124;4.182;2023-10-08T10:12:18;19.50;99.90
41904;DHT22;27586;51.124;4.182;2023-10-08T10:14:46;19.60;99.90
41904;DHT22;27586;51.124;4.182;2023-10-08T10:17:19;19.50;99.90
41904;DHT22;27586;51.124;4.182;2023-10-08T10:19:56;19.60;99.90
41904;DHT22;27586;51.124;4.182;2023-10-08T10:22:33;19.60;99.90
41904;DHT22;27586;51.124;4.182;2023-10-08T10:24:59;19.80;99.90
41904;DHT22;27586;51.124;4.182;2023-10-08T10:27:29;19.70;99.90
41904;DHT22;27586;51.124;4.182;2023-10-08T10:30:03;19.80;99.90
41904;DHT22;27586;51.124;4.182;2023-10-08T10:32:35;20.10;99.90
41904;DHT22;27586;51.124;4.182;2023-10-08T10:35:01;20.10;99.90
41904;DHT22;27586;51.124;4.182;2023-10-08T10:37:32;20.10;99.90
41904;DHT22;27586;51.124;4.182;2023-10-08T10:40:07;20.10;99.90
41904;DHT22;27586;51.124;4.182;2023-10-08T10:42:38;20.20;99.90
41904;DHT22;27586;51.124;4.182;2023-10-08T10:45:15;20.30;99.90
41904;DHT22;27586;51.124;4.182;2023-10-08T10:48:02;20.30;99.90
41904;DHT22;27586;51.124;4.182;2023-10-08T10:50:47;20.50;99.90
41904;DHT22;27586;51.124;4.182;2023-10-08T10:53:39;20.50;99.90
41904;DHT22;27586;51.124;4.182;2023-10-08T10:56:21;20.40;99.90
41904;DHT22;27586;51.124;4.182;2023-10-08T10:58:59;20.50;99.90
41904;DHT22;27586;51.124;4.182;2023-10-08T11:01:28;20.60;99.90
41904;DHT22;27586;51.124;4.182;2023-10-08T11:03:56;20.70;99.90
41904;DHT22;27586;51.124;4.182;2023-10-08T11:06:23;20.70;99.90
41904;DHT22;27586;51.124;4.182;2023-10-08T11:08:51;20.60;99.90
41904;DHT22;27586;51.124;4.182;2023-10-08T11:11:18;20.80;99.90
41904;DHT22;27586;51.124;4.182;2023-10-08T11:13:44;20.80;99.90
41904;DHT22;27586;51.124;4.182;2023-10-08T11:16:17;20.90;99.90
41904;DHT22;27586;51.124;4.182;2023-10-08T11:18:47;21.10;99.90
41904;DHT22;27586;51.124;4.182;2023-10-08T11:21:16;21.00;99.90
41904;DHT22;27586;51.124;4.182;2023-10-08T11:23:47;21.10;99.90
41904;DHT22;27586;51.124;4.182;2023-10-08T11:26:22;21.10;99.90
41904;DHT22;27586;51.124;4.182;2023-10-08T11:29:01;21.20;99.90
41904;DHT22;27586;51.124;4.182;2023-10-08T11:31:28;21.20;99.90
41904;DHT22;27586;51.124;4.182;2023-10-08T11:34:03;21.20;99.90
41904;DHT22;27586;51.124;4.182;2023-10-08T11:36:36;21.30;99.90
41904;DHT22;27586;51.124;4.182;2023-10-08T11:39:14;21.40;99.90
41904;DHT22;27586;51.124;4.182;2023-10-08T11:41:59;21.50;99.90
41904;DHT22;27586;51.124;4.182;2023-10-08T11:44:45;21.50;99.90
41904;DHT22;27586;51.124;4.182;2023-10-08T11:47:12;21.50;99.90
41904;DHT22;27586;51.124;4.182;2023-10-08T11:49:39;21.40;99.90
41904;DHT22;27586;51.124;4.182;2023-10-08T11:52:13;21.50;99.90
41904;DHT22;27586;51.124;4.182;2023-10-08T11:54:44;21.60;99.90
41904;DHT22;27586;51.124;4.182;2023-10-08T11:57:10;21.70;99.90
41904;DHT22;27586;51.124;4.182;2023-10-08T11:59:37;21.70;99.90
41904;DHT22;27586;51.124;4.182;2023-10-08T12:02:06;21.70;99.90
41904;DHT22;27586;51.124;4.182;2023-10-08T12:04:32;21.80;99.90
41904;DHT22;27586;51.124;4.182;2023-10-08T12:06:57;21.80;99.90
41904;DHT22;27586;51.124;4.182;2023-10-08T12:09:27;21.80;99.90
41904;DHT22;27586;51.124;4.182;2023-10-08T12:11:53;21.80;99.90
41904;DHT22;27586;51.124;4.182;2023-10-08T12:14:19;21.80;99.90
41904;DHT22;27586;51.124;4.182;2023-10-08T12:16:45;21.90;99.90
41904;DHT22;27586;51.124;4.182;2023-10-08T12:19:11;22.00;99.90
41904;DHT22;27586;51.124;4.182;2023-10-08T12:21:43;22.10;99.90
41904;DHT22;27586;51.124;4.182;2023-10-08T12:24:13;22.00;99.90
41904;DHT22;27586;51.124;4.182;2023-10-08T12:26:40;21.90;99.90
41904;DHT22;27586;51.124;4.182;2023-10-08T12:29:14;21.90;99.90
41904;DHT22;27586;51.124;4.182;2023-10-08T12:31:42;22.00;99.90
41904;DHT22;27586;51.124;4.182;2023-10-08T12:34:15;22.00;99.90
41904;DHT22;27586;51.124;4.182;2023-10-08T12:36:42;21.90;99.90
41904;DHT22;27586;51.124;4.182;2023-10-08T12:39:07;22.00;99.90
41904;DHT22;27586;51.124;4.182;2023-10-08T12:41:43;21.90;99.90
41904;DHT22;27586;51.124;4.182;2023-10-08T12:44:10;21.90;99.90
41904;DHT22;27586;51.124;4.182;2023-10-08T12:46:35;21.90;99.90
41904;DHT22;27586;51.124;4.182;2023-10-08T12:49:02;21.80;99.90
41904;DHT22;27586;51.124;4.182;2023-10-08T12:51:29;21.80;99.90
41904;DHT22;27586;51.124;4.182;2023-10-08T12:53:59;21.80;99.90
41904;DHT22;27586;51.124;4.182;2023-10-08T12:56:29;21.90;99.90
41904;DHT22;27586;51.124;4.182;2023-10-08T12:59:04;22.00;99.90
41904;DHT22;27586;51.124;4.182;2023-10-08T13:01:34;21.90;99.90
41904;DHT22;27586;51.124;4.182;2023-10-08T13:04:01;22.00;99.90
41904;DHT22;27586;51.124;4.182;2023-10-08T13:06:33;22.00;99.90
41904;DHT22;27586;51.124;4.182;2023-10-08T13:09:03;22.00;99.90
41904;DHT22;27586;51.124;4.182;2023-10-08T13:11:34;22.00;99.90
41904;DHT22;27586;51.124;4.182;2023-10-08T13:14:00;22.00;99.90
41904;DHT22;27586;51.124;4.182;2023-10-08T13:16:27;21.80;99.90
41904;DHT22;27586;51.124;4.182;2023-10-08T13:18:57;21.80;99.90
41904;DHT22;27586;51.124;4.182;2023-10-08T13:21:24;21.80;99.90
41904;DHT22;27586;51.124;4.182;2023-10-08T13:23:53;21.70;99.90
41904;DHT22;27586;51.124;4.182;2023-10-08T13:26:22;21.70;99.90
41904;DHT22;27586;51.124;4.182;2023-10-08T13:28:48;21.70;99.90
41904;DHT22;27586;51.124;4.182;2023-10-08T13:31:14;21.80;99.90
41904;DHT22;27586;51.124;4.182;2023-10-08T13:33:42;21.70;99.90
41904;DHT22;27586;51.124;4.182;2023-10-08T13:36:10;21.80;99.90
41904;DHT22;27586;51.124;4.182;2023-10-08T13:38:37;21.80;99.90
41904;DHT22;27586;51.124;4.182;2023-10-08T13:41:07;21.70;99.90
41904;DHT22;27586;51.124;4.182;2023-10-08T13:43:44;21.70;99.90
41904;DHT22;27586;51.124;4.182;2023-10-08T13:46:12;21.80;99.90
41904;DHT22;27586;51.124;4.182;2023-10-08T13:48:40;21.90;99.90
41904;DHT22;27586;51.124;4.182;2023-10-08T13:51:06;21.90;99.90
41904;DHT22;27586;51.124;4.182;2023-10-08T13:53:47;21.90;99.90
41904;DHT22;27586;51.124;4.182;2023-10-08T13:56:18;22.00;99.90
41904;DHT22;27586;51.124;4.182;2023-10-08T13:58:44;21.90;99.90
41904;DHT22;27586;51.124;4.182;2023-10-08T14:01:13;21.90;99.90
41904;DHT22;27586;51.124;4.182;2023-10-08T14:03:48;21.90;99.90
41904;DHT22;27586;51.124;4.182;2023-10-08T14:06:15;22.00;99.90
41904;DHT22;27586;51.124;4.182;2023-10-08T14:08:42;21.90;99.90
41904;DHT22;27586;51.124;4.182;2023-10-08T14:11:10;21.90;99.90
41904;DHT22;27586;51.124;4.182;2023-10-08T14:13:38;21.90;99.90
41904;DHT22;27586;51.124;4.182;2023-10-08T14:16:08;21.80;99.90
41904;DHT22;27586;51.124;4.182;2023-10-08T14:18:36;21.90;99.90
41904;DHT22;27586;51.124;4.182;2023-10-08T14:21:09;21.90;99.90
41904;DHT22;27586;51.124;4.182;2023-10-08T14:23:36;22.00;99.90
41904;DHT22;27586;51.124;4.182;2023-10-08T14:26:09;22.00;99.90
41904;DHT22;27586;51.124;4.182;2023-10-08T14:28:35;22.00;99.90
41904;DHT22;27586;51.124;4.182;2023-10-08T14:31:19;22.00;99.90
41904;DHT22;27586;51.124;4.182;2023-10-08T14:33:48;21.90;99.90
41904;DHT22;27586;51.124;4.182;2023-10-08T14:36:48;21.90;99.90
41904;DHT22;27586;51.124;4.182;2023-10-08T14:39:33;21.80;99.90
41904;DHT22;27586;51.124;4.182;2023-10-08T14:42:18;21.80;99.90
41904;DHT22;27586;51.124;4.182;2023-10-08T14:45:03;21.70;99.90
41904;DHT22;27586;51.124;4.182;2023-10-08T14:47:29;21.70;99.90
41904;DHT22;27586;51.124;4.182;2023-10-08T14:49:54;21.70;99.90
41904;DHT22;27586;51.124;4.182;2023-10-08T14:52:21;21.70;99.90
41904;DHT22;27586;51.124;4.182;2023-10-08T14:54:46;21.60;99.90
41904;DHT22;27586;51.124;4.182;2023-10-08T14:57:13;21.70;99.90
41904;DHT22;27586;51.124;4.182;2023-10-08T14:59:41;21.70;99.90
41904;DHT22;27586;51.124;4.182;2023-10-08T15:02:07;21.60;99.90
41904;DHT22;27586;51.124;4.182;2023-10-08T15:04:36;21.60;99.90
41904;DHT22;27586;51.124;4.182;2023-10-08T15:07:07;21.70;99.90
41904;DHT22;27586;51.124;4.182;2023-10-08T15:09:37;21.70;99.90
41904;DHT22;27586;51.124;4.182;2023-10-08T15:12:05;21.80;99.90
41904;DHT22;27586;51.124;4.182;2023-10-08T15:14:32;21.80;99.90
41904;DHT22;27586;51.124;4.182;2023-10-08T15:16:58;21.80;99.90
41904;DHT22;27586;51.124;4.182;2023-10-08T15:19:24;21.70;99.90
41904;DHT22;27586;51.124;4.182;2023-10-08T15:21:51;21.70;99.90
41904;DHT22;27586;51.124;4.182;2023-10-08T15:24:21;21.70;99.90
41904;DHT22;27586;51.124;4.182;2023-10-08T15:26:51;21.70;99.90
41904;DHT22;27586;51.124;4.182;2023-10-08T15:29:18;21.70;99.90
41904;DHT22;27586;51.124;4.182;2023-10-08T15:31:48;21.60;99.90
41904;DHT22;27586;51.124;4.182;2023-10-08T15:34:15;21.60;99.90
41904;DHT22;27586;51.124;4.182;2023-10-08T15:36:41;21.50;99.90
41904;DHT22;27586;51.124;4.182;2023-10-08T15:39:07;21.50;99.90
41904;DHT22;27586;51.124;4.182;2023-10-08T15:41:37;21.50;99.90
41904;DHT22;27586;51.124;4.182;2023-10-08T15:44:03;21.40;99.90
41904;DHT22;27586;51.124;4.182;2023-10-08T15:46:31;21.50;99.90
41904;DHT22;27586;51.124;4.182;2023-10-08T15:49:02;21.40;99.90
41904;DHT22;27586;51.124;4.182;2023-10-08T15:51:31;21.30;99.90
41904;DHT22;27586;51.124;4.182;2023-10-08T15:54:00;21.40;99.90
41904;DHT22;27586;51.124;4.182;2023-10-08T15:56:29;21.40;99.90